createdAt,value
2023-02-17T00:01:50.862Z,93.20
2023-02-17T00:04:21.063Z,93.30
2023-02-17T00:06:50.275Z,93.40
2023-02-17T00:09:19.427Z,93.20
2023-02-17T00:11:49.098Z,93.40
2023-02-17T00:14:19.213Z,93.50
2023-02-17T00:16:48.522Z,93.40
2023-02-17T00:19:27.039Z,93.40
2023-02-17T00:21:59.824Z,93.30
2023-02-17T00:24:32.577Z,93.40
2023-02-17T00:27:02.099Z,93.50
2023-02-17T00:29:31.401Z,93.40
2023-02-17T00:32:00.960Z,93.50
2023-02-17T00:34:30.243Z,93.30
2023-02-17T00:36:59.472Z,93.20
2023-02-17T00:39:28.818Z,93.40
2023-02-17T00:41:58.067Z,93.50
2023-02-17T00:44:27.698Z,93.40
2023-02-17T00:46:57.138Z,93.60
2023-02-17T00:49:28.357Z,93.40
2023-02-17T00:52:01.915Z,93.20
2023-02-17T00:54:31.762Z,93.20
2023-02-17T00:57:03.107Z,93.20
2023-02-17T00:59:32.338Z,92.90
2023-02-17T01:02:01.539Z,93.00
2023-02-17T01:04:30.799Z,93.00
2023-02-17T01:07:00.505Z,92.90
2023-02-17T01:09:29.693Z,92.90
2023-02-17T01:11:58.882Z,92.50
2023-02-17T01:14:28.099Z,92.60
2023-02-17T01:16:57.335Z,92.20
2023-02-17T01:19:26.791Z,92.10
2023-02-17T01:21:55.924Z,92.00
2023-02-17T01:24:25.100Z,91.80
2023-02-17T01:26:55.502Z,91.70
2023-02-17T01:29:27.342Z,91.70
2023-02-17T01:31:56.534Z,91.40
2023-02-17T01:34:25.695Z,91.20
2023-02-17T01:36:55.234Z,91.30
2023-02-17T01:39:24.396Z,91.20
2023-02-17T01:41:53.486Z,91.50
2023-02-17T01:44:26.720Z,90.90
2023-02-17T01:46:57.780Z,90.70
2023-02-17T01:49:40.635Z,90.70
2023-02-17T01:52:23.720Z,90.60
2023-02-17T01:55:02.295Z,90.50
2023-02-17T01:57:36.148Z,90.50
2023-02-17T02:00:11.966Z,90.60
2023-02-17T02:02:48.567Z,90.30
2023-02-17T02:05:20.483Z,90.40
2023-02-17T02:07:51.737Z,90.30
2023-02-17T02:10:21.607Z,90.20
2023-02-17T02:12:50.744Z,90.00
2023-02-17T02:15:27.535Z,90.00
2023-02-17T02:18:58.488Z,90.00
2023-02-17T02:21:58.823Z,90.10
2023-02-17T02:25:09.279Z,90.20
2023-02-17T02:28:07.586Z,89.70
2023-02-17T02:31:27.309Z,89.80
2023-02-17T02:34:05.994Z,89.90
2023-02-17T02:36:51.053Z,89.40
2023-02-17T02:39:24.900Z,89.30
2023-02-17T02:42:11.212Z,88.50
2023-02-17T02:44:40.311Z,88.30
2023-02-17T02:47:47.653Z,88.50
2023-02-17T02:50:30.620Z,88.70
2023-02-17T02:53:14.033Z,88.60
2023-02-17T02:55:52.706Z,88.40
2023-02-17T02:59:12.391Z,88.10
2023-02-17T03:01:53.040Z,87.70
2023-02-17T03:04:38.686Z,87.50
2023-02-17T03:07:23.131Z,87.40
2023-02-17T03:09:59.601Z,86.80
2023-02-17T03:12:30.192Z,86.30
2023-02-17T03:15:30.364Z,86.60
2023-02-17T03:18:03.113Z,86.60
2023-02-17T03:20:45.769Z,86.30
2023-02-17T03:23:15.017Z,86.10
2023-02-17T03:25:46.001Z,86.20
2023-02-17T03:28:16.318Z,86.50
2023-02-17T03:30:45.560Z,85.70
2023-02-17T03:33:14.896Z,85.50
2023-02-17T03:35:44.226Z,85.40
2023-02-17T03:38:13.324Z,84.70
2023-02-17T03:40:42.408Z,84.80
2023-02-17T03:43:11.597Z,84.60
2023-02-17T03:45:40.746Z,84.30
2023-02-17T03:48:09.870Z,84.10
2023-02-17T03:50:39.197Z,84.30
2023-02-17T03:53:08.437Z,84.00
2023-02-17T03:55:37.623Z,84.20
2023-02-17T03:58:07.091Z,83.50
2023-02-17T04:00:36.205Z,83.00
2023-02-17T04:03:05.475Z,83.10
2023-02-17T04:05:34.606Z,83.00
2023-02-17T04:08:03.691Z,82.60
2023-02-17T04:10:32.862Z,82.90
2023-02-17T04:13:02.000Z,82.10
2023-02-17T04:15:31.197Z,82.10
2023-02-17T04:18:00.570Z,81.80
2023-02-17T04:20:29.768Z,81.80
2023-02-17T04:22:58.962Z,82.10
2023-02-17T04:25:28.115Z,82.10
2023-02-17T04:27:57.173Z,81.80
2023-02-17T04:30:27.381Z,82.20
2023-02-17T04:32:56.611Z,81.70
2023-02-17T04:35:26.285Z,82.30
2023-02-17T04:37:56.191Z,82.40
2023-02-17T04:40:25.960Z,82.20
2023-02-17T04:42:55.274Z,82.00
2023-02-17T04:45:25.532Z,81.40
2023-02-17T04:47:54.705Z,81.70
2023-02-17T04:50:24.210Z,82.00
2023-02-17T04:52:53.476Z,81.60
2023-02-17T04:55:22.661Z,81.30
2023-02-17T04:57:51.838Z,81.20
2023-02-17T05:00:21.610Z,80.90
2023-02-17T05:02:50.749Z,80.90
2023-02-17T05:05:20.119Z,79.60
2023-02-17T05:07:49.495Z,79.00
2023-02-17T05:10:23.679Z,79.00
2023-02-17T05:12:53.488Z,79.50
2023-02-17T05:15:22.793Z,79.30
2023-02-17T05:17:52.382Z,79.30
2023-02-17T05:20:22.957Z,78.90
2023-02-17T05:22:52.041Z,79.00
2023-02-17T05:25:24.338Z,79.00
2023-02-17T05:27:53.421Z,78.80
2023-02-17T05:30:22.852Z,79.10
2023-02-17T05:32:51.975Z,79.20
2023-02-17T05:35:21.193Z,78.60
2023-02-17T05:37:50.532Z,79.40
2023-02-17T05:40:20.002Z,79.10
2023-02-17T05:42:49.110Z,79.30
2023-02-17T05:45:18.422Z,78.40
2023-02-17T05:47:47.535Z,78.60
2023-02-17T05:50:16.595Z,78.90
2023-02-17T05:52:47.873Z,78.70
2023-02-17T05:55:17.151Z,78.70
2023-02-17T05:57:46.363Z,78.40
2023-02-17T06:00:16.486Z,78.80
2023-02-17T06:02:45.731Z,79.10
2023-02-17T06:05:14.974Z,78.90
2023-02-17T06:07:44.249Z,78.30
2023-02-17T06:10:14.231Z,78.00
2023-02-17T06:12:43.360Z,77.70
2023-02-17T06:15:12.476Z,77.30
2023-02-17T06:17:42.640Z,77.50
2023-02-17T06:20:13.782Z,77.60
2023-02-17T06:22:44.610Z,77.70
2023-02-17T06:25:13.892Z,77.20
2023-02-17T06:27:45.004Z,78.10
2023-02-17T06:30:16.019Z,77.60
2023-02-17T06:32:48.547Z,77.20
2023-02-17T06:35:18.382Z,76.80
2023-02-17T06:37:47.581Z,76.80
2023-02-17T06:40:17.288Z,77.40
2023-02-17T06:42:46.611Z,76.70
2023-02-17T06:45:15.818Z,76.50
2023-02-17T06:47:45.494Z,76.00
2023-02-17T06:50:16.934Z,76.40
2023-02-17T06:52:46.178Z,75.80
2023-02-17T06:55:15.420Z,75.00
2023-02-17T06:57:44.602Z,74.40
2023-02-17T07:00:14.453Z,74.60
2023-02-17T07:02:43.696Z,75.00
2023-02-17T07:05:12.980Z,74.60
2023-02-17T07:07:42.456Z,75.40
2023-02-17T07:10:12.281Z,75.00
2023-02-17T07:12:41.489Z,74.80
2023-02-17T07:15:12.436Z,74.70
2023-02-17T07:17:42.205Z,75.40
2023-02-17T07:20:12.827Z,75.10
2023-02-17T07:22:42.252Z,74.30
2023-02-17T07:25:11.442Z,73.80
2023-02-17T07:27:41.093Z,73.80
2023-02-17T07:30:11.255Z,73.30
2023-02-17T07:32:40.603Z,72.80
2023-02-17T07:35:10.106Z,72.70
2023-02-17T07:37:39.403Z,72.80
2023-02-17T07:40:09.572Z,72.70
2023-02-17T07:42:38.792Z,73.10
2023-02-17T07:45:08.400Z,72.80
2023-02-17T07:47:37.619Z,72.90
2023-02-17T07:50:07.600Z,73.60
2023-02-17T07:55:20.228Z,73.60
2023-02-17T07:57:51.014Z,73.40
2023-02-17T08:00:21.250Z,73.40
2023-02-17T08:02:50.408Z,73.70
2023-02-17T08:05:19.784Z,73.20
2023-02-17T08:07:49.365Z,73.00
2023-02-17T08:10:36.868Z,72.50
2023-02-17T08:13:21.471Z,72.40
2023-02-17T08:15:50.789Z,73.00
2023-02-17T08:18:20.339Z,73.20
2023-02-17T08:20:51.449Z,72.80
2023-02-17T08:23:22.493Z,73.40
2023-02-17T08:25:51.735Z,73.50
2023-02-17T08:28:22.545Z,73.60
2023-02-17T08:30:52.064Z,73.30
2023-02-17T08:33:24.596Z,73.00
2023-02-17T08:35:53.930Z,73.10
2023-02-17T08:38:23.244Z,73.10
2023-02-17T08:40:52.581Z,73.00
2023-02-17T08:43:21.720Z,72.10
2023-02-17T08:45:50.978Z,72.70
2023-02-17T08:48:20.250Z,72.50
2023-02-17T08:50:50.021Z,72.30
2023-02-17T08:53:19.248Z,72.00
2023-02-17T08:55:49.710Z,72.20
2023-02-17T08:58:19.476Z,73.10
2023-02-17T09:00:48.867Z,72.50
2023-02-17T09:03:18.190Z,72.10
2023-02-17T09:05:48.337Z,72.10
2023-02-17T09:08:18.919Z,72.30
2023-02-17T09:10:48.244Z,72.30
2023-02-17T09:13:18.194Z,72.30
2023-02-17T09:15:47.593Z,72.50
2023-02-17T09:18:20.153Z,72.60
2023-02-17T09:20:50.712Z,72.80
2023-02-17T09:23:20.584Z,73.00
2023-02-17T09:25:52.223Z,73.20
2023-02-17T09:28:21.445Z,73.10
2023-02-17T09:30:52.374Z,74.40
2023-02-17T09:33:22.336Z,73.40
2023-02-17T09:35:51.782Z,73.30
2023-02-17T09:38:21.015Z,73.30
2023-02-17T09:40:51.862Z,73.90
2023-02-17T09:43:32.445Z,73.80
2023-02-17T09:46:16.813Z,73.90
2023-02-17T09:48:49.437Z,73.70
2023-02-17T09:51:56.625Z,73.80
2023-02-17T09:54:31.316Z,74.50
2023-02-17T09:57:05.287Z,74.00
2023-02-17T10:00:10.327Z,74.00
2023-02-17T10:03:04.722Z,74.20
2023-02-17T10:05:43.348Z,74.50
2023-02-17T10:08:28.829Z,74.40
2023-02-17T10:11:18.633Z,74.50
2023-02-17T10:13:50.226Z,74.60
2023-02-17T10:16:32.057Z,74.80
2023-02-17T10:19:28.739Z,74.90
2023-02-17T10:22:21.034Z,75.70
2023-02-17T10:24:50.333Z,75.30
2023-02-17T10:27:44.326Z,75.40
2023-02-17T10:30:33.270Z,75.30
2023-02-17T10:33:24.855Z,75.60
2023-02-17T10:36:34.960Z,75.50
2023-02-17T10:39:17.116Z,75.70
2023-02-17T10:41:51.870Z,76.00
2023-02-17T10:44:26.223Z,76.10
2023-02-17T10:46:56.842Z,75.80
2023-02-17T10:49:40.577Z,76.10
2023-02-17T10:52:26.031Z,76.20
2023-02-17T10:55:35.944Z,76.40
2023-02-17T10:58:48.461Z,76.60
2023-02-17T11:01:18.447Z,77.10
2023-02-17T11:03:47.593Z,77.10
2023-02-17T11:06:23.851Z,77.20
2023-02-17T11:09:06.947Z,77.30
2023-02-17T11:11:38.440Z,77.60
2023-02-17T11:14:14.004Z,77.90
2023-02-17T11:17:30.336Z,78.10
2023-02-17T11:20:10.265Z,78.00
2023-02-17T11:22:46.723Z,78.20
2023-02-17T11:25:35.382Z,78.20
2023-02-17T11:28:15.410Z,78.30
2023-02-17T11:30:55.642Z,78.70
2023-02-17T11:33:41.452Z,78.40
2023-02-17T11:36:26.038Z,78.50
2023-02-17T11:38:55.801Z,78.60
2023-02-17T11:41:26.082Z,78.50
2023-02-17T11:44:01.075Z,78.50
2023-02-17T11:47:12.308Z,78.90
2023-02-17T11:49:56.889Z,78.70
2023-02-17T11:53:06.061Z,78.70
2023-02-17T11:56:00.346Z,78.80
2023-02-17T11:59:22.612Z,78.70
2023-02-17T12:02:18.307Z,78.70
2023-02-17T12:05:21.976Z,78.80
2023-02-17T12:08:03.213Z,78.80
2023-02-17T12:11:15.760Z,78.90
2023-02-17T12:13:54.654Z,79.00
2023-02-17T12:16:47.288Z,79.20
2023-02-17T12:19:42.206Z,79.50
2023-02-17T12:22:14.417Z,79.60
2023-02-17T12:25:05.290Z,80.10
2023-02-17T12:27:57.626Z,80.30
2023-02-17T12:30:38.615Z,80.50
2023-02-17T12:33:26.069Z,80.80
2023-02-17T12:36:12.419Z,80.90
2023-02-17T12:38:54.633Z,81.10
2023-02-17T12:41:31.701Z,81.30
2023-02-17T12:44:14.441Z,81.70
2023-02-17T12:46:53.852Z,82.00
2023-02-17T12:49:43.089Z,82.30
2023-02-17T12:52:41.776Z,82.30
2023-02-17T12:55:49.471Z,82.40
2023-02-17T12:58:31.562Z,82.30
2023-02-17T13:01:10.984Z,82.30
2023-02-17T13:03:40.384Z,82.30
2023-02-17T13:06:38.011Z,82.40
2023-02-17T13:09:46.374Z,82.20
2023-02-17T13:12:27.454Z,82.10
2023-02-17T13:15:07.145Z,82.00
2023-02-17T13:17:53.187Z,82.10
2023-02-17T13:20:53.340Z,82.10
2023-02-17T13:23:39.689Z,82.10
2023-02-17T13:26:22.296Z,82.00
2023-02-17T13:28:55.008Z,81.90
2023-02-17T13:31:28.561Z,82.40
2023-02-17T13:34:01.748Z,82.10
2023-02-17T13:36:31.104Z,82.10
2023-02-17T13:39:11.121Z,82.30
2023-02-17T13:41:50.024Z,82.50
2023-02-17T13:44:40.700Z,82.70
2023-02-17T13:47:31.008Z,82.70
2023-02-17T13:50:00.340Z,83.00
2023-02-17T13:52:33.009Z,83.00
2023-02-17T13:55:06.250Z,83.10
2023-02-17T13:57:38.591Z,83.30
2023-02-17T14:00:12.316Z,83.10
2023-02-17T14:03:13.858Z,83.40
2023-02-17T14:05:48.140Z,84.00
2023-02-17T14:08:25.154Z,85.60
2023-02-17T14:10:55.078Z,86.00
2023-02-17T14:13:26.069Z,86.40
2023-02-17T14:16:01.322Z,86.60
2023-02-17T14:18:38.961Z,86.60
2023-02-17T14:21:37.876Z,86.90
2023-02-17T14:24:10.278Z,87.20
2023-02-17T14:26:50.784Z,87.00
2023-02-17T14:29:20.006Z,87.00
2023-02-17T14:31:53.401Z,87.10
2023-02-17T14:34:32.885Z,87.10
2023-02-17T14:37:22.038Z,87.20
2023-02-17T14:39:51.839Z,87.20
2023-02-17T14:42:21.093Z,86.90
2023-02-17T14:44:50.315Z,86.90
2023-02-17T14:47:19.650Z,86.90
2023-02-17T14:49:48.796Z,87.20
2023-02-17T14:52:25.522Z,87.20
2023-02-17T14:54:54.831Z,87.00
2023-02-17T14:57:29.385Z,86.90
2023-02-17T14:59:58.725Z,86.90
2023-02-17T15:02:27.910Z,87.10
2023-02-17T15:04:57.251Z,87.40
2023-02-17T15:07:26.444Z,87.60
2023-02-17T15:09:56.019Z,87.00
2023-02-17T15:12:27.126Z,86.60
2023-02-17T15:14:57.300Z,86.70
2023-02-17T15:17:26.518Z,86.50
2023-02-17T15:19:55.873Z,87.20
2023-02-17T15:22:26.417Z,86.50
2023-02-17T15:24:55.657Z,86.60
2023-02-17T15:27:24.819Z,86.80
2023-02-17T15:29:54.041Z,86.90
2023-02-17T15:32:24.953Z,87.00
2023-02-17T15:34:54.259Z,87.00
2023-02-17T15:37:23.976Z,86.60
2023-02-17T15:39:53.163Z,86.30
2023-02-17T15:42:22.341Z,86.20
2023-02-17T15:44:52.988Z,87.00
2023-02-17T15:47:23.118Z,87.70
2023-02-17T15:49:52.384Z,88.10
2023-02-17T15:52:21.735Z,88.10
2023-02-17T15:54:51.005Z,88.60
2023-02-17T15:57:25.896Z,88.70
2023-02-17T15:59:56.194Z,88.40
2023-02-17T16:02:27.126Z,88.30
2023-02-17T16:04:56.535Z,88.40
2023-02-17T16:07:25.706Z,88.40
2023-02-17T16:09:54.868Z,88.10
2023-02-17T16:12:27.691Z,87.60
2023-02-17T16:14:58.931Z,87.50
2023-02-17T16:17:28.861Z,87.30
2023-02-17T16:19:58.503Z,87.10
2023-02-17T16:22:28.865Z,87.00
2023-02-17T16:24:58.233Z,87.20
2023-02-17T16:27:27.611Z,87.20
2023-02-17T16:29:56.976Z,87.30
2023-02-17T16:32:26.343Z,87.40
2023-02-17T16:34:55.537Z,87.10
2023-02-17T16:37:24.806Z,87.10
2023-02-17T16:39:53.972Z,87.10
2023-02-17T16:42:23.264Z,87.20
2023-02-17T16:44:52.494Z,87.10
2023-02-17T16:47:24.788Z,87.10
2023-02-17T16:49:54.126Z,87.30
2023-02-17T16:52:28.977Z,87.60
2023-02-17T16:54:58.269Z,88.10
2023-02-17T16:57:27.685Z,88.30
2023-02-17T16:59:57.093Z,88.60
2023-02-17T17:02:26.322Z,89.10
2023-02-17T17:04:55.594Z,89.60
2023-02-17T17:07:24.811Z,89.80
2023-02-17T17:10:15.314Z,90.00
2023-02-17T17:12:44.733Z,90.30
2023-02-17T17:15:15.689Z,90.40
2023-02-17T17:18:10.779Z,90.60
2023-02-17T17:20:41.849Z,90.60
2023-02-17T17:23:16.026Z,90.90
2023-02-17T17:25:47.798Z,90.90
2023-02-17T17:28:19.755Z,90.90
2023-02-17T17:30:50.634Z,90.80
2023-02-17T17:33:19.831Z,90.70
2023-02-17T17:35:49.015Z,90.60
2023-02-17T17:38:18.360Z,90.50
2023-02-17T17:40:50.305Z,90.30
2023-02-17T17:43:26.930Z,90.50
2023-02-17T17:45:57.097Z,89.90
2023-02-17T17:48:26.341Z,89.50
2023-02-17T17:50:55.505Z,89.50
2023-02-17T17:53:24.677Z,89.50
2023-02-17T17:55:53.899Z,89.10
2023-02-17T17:58:23.075Z,88.90
2023-02-17T18:00:53.982Z,88.50
2023-02-17T18:03:23.183Z,88.10
2023-02-17T18:05:52.666Z,88.00
2023-02-17T18:08:22.004Z,88.10
2023-02-17T18:10:51.452Z,88.10
2023-02-17T18:13:21.499Z,88.00
2023-02-17T18:15:51.097Z,88.00
2023-02-17T18:18:21.882Z,88.00
2023-02-17T18:20:51.100Z,88.10
2023-02-17T18:23:20.199Z,88.00
2023-02-17T18:25:49.333Z,88.30
2023-02-17T18:28:18.489Z,88.20
2023-02-17T18:30:47.742Z,88.20
2023-02-17T18:33:16.968Z,88.20
2023-02-17T18:35:46.581Z,88.60
2023-02-17T18:38:15.743Z,88.90
2023-02-17T18:40:44.979Z,88.70
2023-02-17T18:43:15.680Z,88.80
2023-02-17T18:45:50.877Z,88.70
2023-02-17T18:48:21.083Z,89.00
2023-02-17T18:50:51.527Z,88.80
2023-02-17T18:53:21.047Z,88.70
2023-02-17T18:55:50.835Z,88.70
2023-02-17T18:58:20.472Z,89.00
2023-02-17T19:00:49.561Z,89.10
2023-02-17T19:03:18.658Z,89.20
2023-02-17T19:05:47.759Z,89.30
2023-02-17T19:08:16.851Z,89.40
2023-02-17T19:10:46.351Z,89.60
2023-02-17T19:13:15.553Z,89.40
2023-02-17T19:15:44.673Z,89.90
2023-02-17T19:18:14.558Z,90.50
2023-02-17T19:20:45.666Z,90.20
2023-02-17T19:23:14.836Z,90.60
2023-02-17T19:25:43.927Z,90.60
2023-02-17T19:28:13.885Z,90.50
2023-02-17T19:30:43.263Z,91.00
2023-02-17T19:33:12.533Z,91.10
2023-02-17T19:35:46.266Z,91.20
2023-02-17T19:38:15.565Z,90.90
2023-02-17T19:40:44.829Z,90.80
2023-02-17T19:43:14.112Z,91.40
2023-02-17T19:45:44.537Z,91.20
2023-02-17T19:48:13.666Z,90.90
2023-02-17T19:50:42.747Z,90.80
2023-02-17T19:53:12.523Z,90.70
2023-02-17T19:55:41.651Z,90.80
2023-02-17T19:58:10.727Z,90.70
2023-02-17T20:00:39.853Z,90.80
2023-02-17T20:03:09.121Z,90.70
2023-02-17T20:05:42.961Z,90.70
2023-02-17T20:08:12.152Z,91.10
2023-02-17T20:10:42.061Z,90.90
2023-02-17T20:13:11.112Z,91.10
2023-02-17T20:15:40.276Z,91.00
2023-02-17T20:18:09.718Z,91.00
2023-02-17T20:20:39.267Z,91.10
2023-02-17T20:23:08.539Z,91.10
2023-02-17T20:25:42.422Z,91.00
2023-02-17T20:28:11.553Z,91.30
2023-02-17T20:30:40.815Z,91.70
2023-02-17T20:33:10.990Z,91.30
2023-02-17T20:35:40.598Z,91.30
2023-02-17T20:38:10.202Z,91.30
2023-02-17T20:40:39.388Z,91.30
2023-02-17T20:43:13.190Z,91.30
2023-02-17T20:45:44.106Z,91.40
2023-02-17T20:48:13.428Z,91.30
2023-02-17T20:50:43.476Z,91.40
2023-02-17T20:53:12.977Z,91.40
2023-02-17T20:55:42.264Z,91.60
2023-02-17T20:58:13.217Z,91.60
2023-02-17T21:00:42.465Z,91.60
2023-02-17T21:03:11.677Z,91.60
2023-02-17T21:05:40.956Z,91.70
2023-02-17T21:08:10.066Z,91.80
2023-02-17T21:10:41.024Z,91.80
2023-02-17T21:13:10.142Z,91.80
2023-02-17T21:15:39.263Z,91.90
2023-02-17T21:18:09.807Z,91.80
2023-02-17T21:20:38.972Z,91.90
2023-02-17T21:23:09.062Z,91.80
2023-02-17T21:25:38.348Z,91.70
2023-02-17T21:28:07.463Z,91.80
2023-02-17T21:30:36.561Z,91.80
2023-02-17T21:33:05.823Z,91.70
2023-02-17T21:35:34.947Z,91.70
2023-02-17T21:38:04.089Z,91.70
2023-02-17T21:40:33.421Z,91.80
2023-02-17T21:43:20.702Z,91.80
2023-02-17T21:45:49.896Z,91.90
2023-02-17T21:48:18.955Z,91.90
2023-02-17T21:50:48.087Z,92.00
2023-02-17T21:53:17.241Z,91.90
2023-02-17T21:55:47.420Z,91.90
2023-02-17T21:58:16.556Z,91.90
2023-02-17T22:00:45.753Z,91.80
2023-02-17T22:03:14.882Z,92.00
2023-02-17T22:05:44.001Z,92.00
2023-02-17T22:08:13.475Z,91.90
2023-02-17T22:10:44.477Z,91.90
2023-02-17T22:13:13.604Z,92.00
2023-02-17T22:15:42.876Z,92.00
2023-02-17T22:18:12.012Z,92.20
2023-02-17T22:20:45.628Z,92.10
2023-02-17T22:23:14.904Z,92.20
2023-02-17T22:25:44.552Z,92.10
2023-02-17T22:28:14.579Z,92.10
2023-02-17T22:30:43.961Z,92.10
2023-02-17T22:33:13.136Z,92.20
2023-02-17T22:35:42.345Z,92.20
2023-02-17T22:38:12.625Z,92.20
2023-02-17T22:40:42.948Z,92.30
2023-02-17T22:43:12.117Z,92.40
2023-02-17T22:45:42.017Z,92.40
2023-02-17T22:48:11.305Z,92.40
2023-02-17T22:50:43.988Z,92.40
2023-02-17T22:53:13.165Z,92.80
2023-02-17T22:55:42.320Z,92.50
2023-02-17T22:58:11.493Z,92.60
2023-02-17T23:00:40.699Z,92.60
2023-02-17T23:03:10.000Z,92.60
2023-02-17T23:05:39.256Z,92.60
2023-02-17T23:08:08.422Z,92.70
2023-02-17T23:10:45.514Z,92.70
2023-02-17T23:13:14.705Z,92.70
2023-02-17T23:15:43.938Z,92.60
2023-02-17T23:18:18.413Z,92.70
2023-02-17T23:20:52.690Z,92.70
2023-02-17T23:23:22.296Z,92.70
2023-02-17T23:25:55.787Z,92.80
2023-02-17T23:28:27.363Z,92.80
2023-02-17T23:30:56.779Z,92.90
2023-02-17T23:33:26.869Z,93.00
2023-02-17T23:35:56.095Z,93.10
2023-02-17T23:38:25.356Z,93.00
2023-02-17T23:40:54.965Z,92.90
2023-02-17T23:43:24.245Z,92.90
2023-02-17T23:45:57.971Z,92.90
2023-02-17T23:48:27.552Z,93.00
2023-02-17T23:51:05.535Z,93.00
2023-02-17T23:53:35.736Z,93.00
2023-02-17T23:56:10.200Z,92.90
2023-02-17T23:58:39.546Z,93.00
